sensor_id;sensor_type;location;lat;lon;timestamp;temperature;humidity
1329;DHT22;658;48.820;9.354;2023-08-31T00:02:06;22.30;65.30
1329;DHT22;658;48.820;9.354;2023-08-31T00:06:07;22.30;65.30
1329;DHT22;658;48.820;9.354;2023-08-31T00:10:08;22.30;65.20
1329;DHT22;658;48.820;9.354;2023-08-31T00:14:10;22.30;65.30
1329;DHT22;658;48.820;9.354;2023-08-31T00:18:11;22.30;65.30
1329;DHT22;658;48.820;9.354;2023-08-31T00:22:13;22.30;65.30
1329;DHT22;658;48.820;9.354;2023-08-31T00:26:13;22.30;65.20
1329;DHT22;658;48.820;9.354;2023-08-31T00:30:15;22.30;65.30
1329;DHT22;658;48.820;9.354;2023-08-31T00:34:15;22.30;65.30
1329;DHT22;658;48.820;9.354;2023-08-31T00:38:17;22.30;65.20
1329;DHT22;658;48.820;9.354;2023-08-31T00:42:18;22.30;65.20
1329;DHT22;658;48.820;9.354;2023-08-31T00:46:21;22.30;65.20
1329;DHT22;658;48.820;9.354;2023-08-31T00:50:22;22.30;65.20
1329;DHT22;658;48.820;9.354;2023-08-31T00:54:23;22.30;65.10
1329;DHT22;658;48.820;9.354;2023-08-31T00:58:23;22.30;65.10
1329;DHT22;658;48.820;9.354;2023-08-31T01:02:34;22.30;65.10
1329;DHT22;658;48.820;9.354;2023-08-31T01:11:34;22.30;65.10
1329;DHT22;658;48.820;9.354;2023-08-31T01:15:38;22.30;65.00
1329;DHT22;658;48.820;9.354;2023-08-31T01:19:54;22.30;65.10
1329;DHT22;658;48.820;9.354;2023-08-31T01:23:56;22.30;65.00
1329;DHT22;658;48.820;9.354;2023-08-31T01:27:59;22.30;65.00
1329;DHT22;658;48.820;9.354;2023-08-31T01:31:59;22.30;65.00
1329;DHT22;658;48.820;9.354;2023-08-31T01:36:05;22.30;64.90
1329;DHT22;658;48.820;9.354;2023-08-31T01:40:34;22.30;64.90
1329;DHT22;658;48.820;9.354;2023-08-31T01:44:36;22.30;64.90
1329;DHT22;658;48.820;9.354;2023-08-31T01:48:40;22.30;64.80
1329;DHT22;658;48.820;9.354;2023-08-31T01:52:41;22.30;64.90
1329;DHT22;658;48.820;9.354;2023-08-31T01:56:42;22.20;64.70
1329;DHT22;658;48.820;9.354;2023-08-31T02:00:42;22.20;64.70
1329;DHT22;658;48.820;9.354;2023-08-31T02:04:46;22.20;64.90
1329;DHT22;658;48.820;9.354;2023-08-31T02:08:46;22.20;64.70
1329;DHT22;658;48.820;9.354;2023-08-31T02:12:47;22.20;64.70
1329;DHT22;658;48.820;9.354;2023-08-31T02:16:48;22.20;64.70
1329;DHT22;658;48.820;9.354;2023-08-31T02:20:52;22.20;64.70
1329;DHT22;658;48.820;9.354;2023-08-31T02:24:56;22.20;64.70
1329;DHT22;658;48.820;9.354;2023-08-31T02:28:59;22.20;64.70
1329;DHT22;658;48.820;9.354;2023-08-31T02:32:59;22.20;64.70
1329;DHT22;658;48.820;9.354;2023-08-31T02:37:00;22.20;64.60
1329;DHT22;658;48.820;9.354;2023-08-31T02:41:00;22.20;64.60
1329;DHT22;658;48.820;9.354;2023-08-31T02:45:04;22.20;64.70
1329;DHT22;658;48.820;9.354;2023-08-31T02:49:05;22.20;64.70
1329;DHT22;658;48.820;9.354;2023-08-31T02:53:05;22.20;64.70
1329;DHT22;658;48.820;9.354;2023-08-31T02:57:08;22.20;64.70
1329;DHT22;658;48.820;9.354;2023-08-31T03:01:10;22.20;64.70
1329;DHT22;658;48.820;9.354;2023-08-31T03:05:11;22.10;64.60
1329;DHT22;658;48.820;9.354;2023-08-31T03:09:12;22.10;64.60
1329;DHT22;658;48.820;9.354;2023-08-31T03:13:16;22.10;64.60
1329;DHT22;658;48.820;9.354;2023-08-31T03:17:16;22.10;64.60
1329;DHT22;658;48.820;9.354;2023-08-31T03:21:17;22.20;64.80
1329;DHT22;658;48.820;9.354;2023-08-31T03:25:17;22.10;64.70
1329;DHT22;658;48.820;9.354;2023-08-31T03:29:18;22.10;64.70
1329;DHT22;658;48.820;9.354;2023-08-31T03:33:18;22.10;64.70
1329;DHT22;658;48.820;9.354;2023-08-31T03:37:19;22.10;64.70
1329;DHT22;658;48.820;9.354;2023-08-31T03:41:21;22.10;64.70
1329;DHT22;658;48.820;9.354;2023-08-31T03:45:22;22.10;64.70
1329;DHT22;658;48.820;9.354;2023-08-31T03:49:22;22.10;64.60
1329;DHT22;658;48.820;9.354;2023-08-31T03:53:23;22.10;64.60
1329;DHT22;658;48.820;9.354;2023-08-31T03:57:26;22.10;64.60
1329;DHT22;658;48.820;9.354;2023-08-31T04:01:27;22.10;64.60
1329;DHT22;658;48.820;9.354;2023-08-31T04:05:31;22.10;64.60
1329;DHT22;658;48.820;9.354;2023-08-31T04:09:33;22.10;64.60
1329;DHT22;658;48.820;9.354;2023-08-31T04:13:33;22.10;64.60
1329;DHT22;658;48.820;9.354;2023-08-31T04:17:34;22.10;64.60
1329;DHT22;658;48.820;9.354;2023-08-31T04:21:34;22.10;64.60
1329;DHT22;658;48.820;9.354;2023-08-31T04:25:36;22.10;64.60
1329;DHT22;658;48.820;9.354;2023-08-31T04:29:39;22.10;64.60
1329;DHT22;658;48.820;9.354;2023-08-31T04:33:39;22.10;64.70
1329;DHT22;658;48.820;9.354;2023-08-31T04:37:42;22.10;64.60
1329;DHT22;658;48.820;9.354;2023-08-31T04:41:47;22.10;64.60
1329;DHT22;658;48.820;9.354;2023-08-31T04:45:48;22.10;64.60
1329;DHT22;658;48.820;9.354;2023-08-31T04:49:48;22.10;64.60
1329;DHT22;658;48.820;9.354;2023-08-31T04:53:51;22.00;64.50
1329;DHT22;658;48.820;9.354;2023-08-31T04:57:54;22.10;64.60
1329;DHT22;658;48.820;9.354;2023-08-31T05:01:54;22.00;64.40
1329;DHT22;658;48.820;9.354;2023-08-31T05:05:55;22.00;64.40
1329;DHT22;658;48.820;9.354;2023-08-31T05:09:55;22.00;64.40
1329;DHT22;658;48.820;9.354;2023-08-31T05:13:56;22.00;64.40
1329;DHT22;658;48.820;9.354;2023-08-31T05:17:56;22.00;64.30
1329;DHT22;658;48.820;9.354;2023-08-31T05:21:57;22.00;64.30
1329;DHT22;658;48.820;9.354;2023-08-31T05:25:58;22.00;64.30
1329;DHT22;658;48.820;9.354;2023-08-31T05:29:59;22.00;64.30
1329;DHT22;658;48.820;9.354;2023-08-31T05:33:59;22.00;64.40
1329;DHT22;658;48.820;9.354;2023-08-31T05:38:00;22.00;64.30
1329;DHT22;658;48.820;9.354;2023-08-31T05:42:00;22.00;64.40
1329;DHT22;658;48.820;9.354;2023-08-31T05:46:01;22.00;64.40
1329;DHT22;658;48.820;9.354;2023-08-31T05:50:05;22.00;64.30
1329;DHT22;658;48.820;9.354;2023-08-31T05:54:06;22.00;64.30
1329;DHT22;658;48.820;9.354;2023-08-31T05:58:10;22.00;64.30
1329;DHT22;658;48.820;9.354;2023-08-31T06:02:11;22.00;64.30
1329;DHT22;658;48.820;9.354;2023-08-31T06:06:12;22.00;64.40
1329;DHT22;658;48.820;9.354;2023-08-31T06:10:12;22.00;64.40
1329;DHT22;658;48.820;9.354;2023-08-31T06:14:15;22.00;64.40
1329;DHT22;658;48.820;9.354;2023-08-31T06:18:15;22.00;64.40
1329;DHT22;658;48.820;9.354;2023-08-31T06:22:16;22.00;64.50
1329;DHT22;658;48.820;9.354;2023-08-31T06:26:17;22.00;64.50
1329;DHT22;658;48.820;9.354;2023-08-31T06:30:17;22.00;64.50
1329;DHT22;658;48.820;9.354;2023-08-31T06:34:19;22.00;64.50
1329;DHT22;658;48.820;9.354;2023-08-31T06:38:19;22.00;65.30
1329;DHT22;658;48.820;9.354;2023-08-31T06:42:20;22.00;64.50
1329;DHT22;658;48.820;9.354;2023-08-31T06:46:21;22.00;64.50
1329;DHT22;658;48.820;9.354;2023-08-31T06:50:23;22.00;64.60
1329;DHT22;658;48.820;9.354;2023-08-31T06:54:26;22.00;64.60
1329;DHT22;658;48.820;9.354;2023-08-31T06:58:27;22.00;64.60
1329;DHT22;658;48.820;9.354;2023-08-31T07:02:27;22.00;64.60
1329;DHT22;658;48.820;9.354;2023-08-31T07:06:28;22.00;64.60
1329;DHT22;658;48.820;9.354;2023-08-31T07:10:29;22.00;64.60
1329;DHT22;658;48.820;9.354;2023-08-31T07:14:31;22.00;64.60
1329;DHT22;658;48.820;9.354;2023-08-31T07:18:36;22.00;64.70
1329;DHT22;658;48.820;9.354;2023-08-31T07:22:37;22.00;64.60
1329;DHT22;658;48.820;9.354;2023-08-31T07:26:40;22.00;64.70
1329;DHT22;658;48.820;9.354;2023-08-31T07:30:43;22.00;64.60
1329;DHT22;658;48.820;9.354;2023-08-31T07:34:44;22.00;64.50
1329;DHT22;658;48.820;9.354;2023-08-31T07:38:44;22.00;64.50
1329;DHT22;658;48.820;9.354;2023-08-31T07:42:45;22.00;64.50
1329;DHT22;658;48.820;9.354;2023-08-31T07:46:45;22.00;64.50
1329;DHT22;658;48.820;9.354;2023-08-31T07:50:46;22.00;64.50
1329;DHT22;658;48.820;9.354;2023-08-31T07:54:46;22.00;64.40
1329;DHT22;658;48.820;9.354;2023-08-31T07:58:47;22.00;64.40
1329;DHT22;658;48.820;9.354;2023-08-31T08:02:48;22.00;64.40
1329;DHT22;658;48.820;9.354;2023-08-31T08:06:49;22.00;64.40
1329;DHT22;658;48.820;9.354;2023-08-31T08:10:53;22.00;64.30
1329;DHT22;658;48.820;9.354;2023-08-31T08:14:54;22.00;64.40
1329;DHT22;658;48.820;9.354;2023-08-31T08:18:54;22.00;65.00
1329;DHT22;658;48.820;9.354;2023-08-31T08:22:55;22.00;64.10
1329;DHT22;658;48.820;9.354;2023-08-31T08:26:58;22.00;63.90
1329;DHT22;658;48.820;9.354;2023-08-31T08:31:02;22.00;63.90
1329;DHT22;658;48.820;9.354;2023-08-31T08:35:05;22.00;63.60
1329;DHT22;658;48.820;9.354;2023-08-31T08:39:06;22.00;63.40
1329;DHT22;658;48.820;9.354;2023-08-31T08:43:07;22.00;63.40
1329;DHT22;658;48.820;9.354;2023-08-31T08:47:08;22.00;63.20
1329;DHT22;658;48.820;9.354;2023-08-31T08:51:10;22.00;63.20
1329;DHT22;658;48.820;9.354;2023-08-31T08:55:10;22.00;63.00
1329;DHT22;658;48.820;9.354;2023-08-31T08:59:11;22.00;62.90
1329;DHT22;658;48.820;9.354;2023-08-31T09:03:15;22.00;62.80
1329;DHT22;658;48.820;9.354;2023-08-31T09:07:16;22.00;62.70
1329;DHT22;658;48.820;9.354;2023-08-31T09:11:19;22.00;62.60
1329;DHT22;658;48.820;9.354;2023-08-31T09:15:22;22.00;62.30
1329;DHT22;658;48.820;9.354;2023-08-31T09:19:24;22.00;63.10
1329;DHT22;658;48.820;9.354;2023-08-31T09:23:25;22.00;62.30
1329;DHT22;658;48.820;9.354;2023-08-31T09:27:26;22.00;62.10
1329;DHT22;658;48.820;9.354;2023-08-31T09:31:29;22.10;62.10
1329;DHT22;658;48.820;9.354;2023-08-31T09:35:31;22.00;61.90
1329;DHT22;658;48.820;9.354;2023-08-31T09:39:39;22.00;62.00
1329;DHT22;658;48.820;9.354;2023-08-31T09:43:42;22.00;61.90
1329;DHT22;658;48.820;9.354;2023-08-31T09:47:43;22.00;62.00
1329;DHT22;658;48.820;9.354;2023-08-31T09:51:45;22.00;62.60
1329;DHT22;658;48.820;9.354;2023-08-31T09:55:51;22.00;61.90
1329;DHT22;658;48.820;9.354;2023-08-31T09:59:52;22.00;61.70
1329;DHT22;658;48.820;9.354;2023-08-31T10:03:53;22.00;61.80
1329;DHT22;658;48.820;9.354;2023-08-31T10:07:54;22.00;61.60
1329;DHT22;658;48.820;9.354;2023-08-31T10:11:55;22.00;61.50
1329;DHT22;658;48.820;9.354;2023-08-31T10:15:57;22.00;61.40
1329;DHT22;658;48.820;9.354;2023-08-31T10:19:57;22.00;61.30
1329;DHT22;658;48.820;9.354;2023-08-31T10:23:58;22.00;61.20
1329;DHT22;658;48.820;9.354;2023-08-31T10:27:59;22.00;61.20
1329;DHT22;658;48.820;9.354;2023-08-31T10:32:03;22.00;61.00
1329;DHT22;658;48.820;9.354;2023-08-31T10:36:04;22.00;60.90
1329;DHT22;658;48.820;9.354;2023-08-31T10:40:12;22.00;60.90
1329;DHT22;658;48.820;9.354;2023-08-31T10:44:24;22.00;60.70
1329;DHT22;658;48.820;9.354;2023-08-31T10:48:27;22.00;60.50
1329;DHT22;658;48.820;9.354;2023-08-31T10:52:43;22.00;60.50
1329;DHT22;658;48.820;9.354;2023-08-31T11:01:00;22.00;60.40
1329;DHT22;658;48.820;9.354;2023-08-31T11:05:09;22.10;60.30
1329;DHT22;658;48.820;9.354;2023-08-31T11:09:21;22.10;60.20
1329;DHT22;658;48.820;9.354;2023-08-31T11:13:23;22.00;60.10
1329;DHT22;658;48.820;9.354;2023-08-31T11:17:27;22.00;60.10
1329;DHT22;658;48.820;9.354;2023-08-31T11:21:28;22.00;59.90
1329;DHT22;658;48.820;9.354;2023-08-31T11:25:31;22.10;59.90
1329;DHT22;658;48.820;9.354;2023-08-31T11:29:32;22.00;60.00
1329;DHT22;658;48.820;9.354;2023-08-31T11:33:33;22.10;59.80
1329;DHT22;658;48.820;9.354;2023-08-31T11:37:36;22.10;59.90
1329;DHT22;658;48.820;9.354;2023-08-31T11:41:37;22.00;59.70
1329;DHT22;658;48.820;9.354;2023-08-31T11:45:42;22.00;59.70
1329;DHT22;658;48.820;9.354;2023-08-31T11:49:43;22.00;59.60
1329;DHT22;658;48.820;9.354;2023-08-31T11:53:44;22.10;59.70
1329;DHT22;658;48.820;9.354;2023-08-31T11:57:52;22.00;59.60
1329;DHT22;658;48.820;9.354;2023-08-31T12:01:52;22.10;59.50
1329;DHT22;658;48.820;9.354;2023-08-31T12:05:55;22.10;59.60
1329;DHT22;658;48.820;9.354;2023-08-31T12:10:04;22.10;59.50
1329;DHT22;658;48.820;9.354;2023-08-31T12:14:19;22.10;59.50
1329;DHT22;658;48.820;9.354;2023-08-31T12:18:19;22.10;59.50
1329;DHT22;658;48.820;9.354;2023-08-31T12:22:20;22.10;59.50
1329;DHT22;658;48.820;9.354;2023-08-31T12:26:20;22.10;59.40
1329;DHT22;658;48.820;9.354;2023-08-31T12:30:21;22.10;59.50
1329;DHT22;658;48.820;9.354;2023-08-31T12:34:23;22.10;59.50
1329;DHT22;658;48.820;9.354;2023-08-31T12:38:26;22.10;59.50
1329;DHT22;658;48.820;9.354;2023-08-31T12:42:26;22.10;59.50
1329;DHT22;658;48.820;9.354;2023-08-31T12:46:27;22.10;59.50
1329;DHT22;658;48.820;9.354;2023-08-31T12:50:29;22.10;59.50
1329;DHT22;658;48.820;9.354;2023-08-31T12:54:30;22.10;59.40
1329;DHT22;658;48.820;9.354;2023-08-31T12:58:30;22.10;59.40
1329;DHT22;658;48.820;9.354;2023-08-31T13:02:31;22.10;59.40
1329;DHT22;658;48.820;9.354;2023-08-31T13:06:34;22.10;59.30
1329;DHT22;658;48.820;9.354;2023-08-31T13:10:35;22.10;59.40
1329;DHT22;658;48.820;9.354;2023-08-31T13:14:37;22.10;59.30
1329;DHT22;658;48.820;9.354;2023-08-31T13:18:39;22.10;59.20
1329;DHT22;658;48.820;9.354;2023-08-31T13:22:39;22.10;59.30
1329;DHT22;658;48.820;9.354;2023-08-31T13:26:41;22.10;59.20
1329;DHT22;658;48.820;9.354;2023-08-31T13:30:47;22.10;59.30
1329;DHT22;658;48.820;9.354;2023-08-31T13:34:48;22.10;59.10
1329;DHT22;658;48.820;9.354;2023-08-31T13:38:48;22.10;59.20
1329;DHT22;658;48.820;9.354;2023-08-31T13:42:58;22.10;59.20
1329;DHT22;658;48.820;9.354;2023-08-31T13:47:03;22.10;59.10
1329;DHT22;658;48.820;9.354;2023-08-31T13:51:05;22.10;59.20
1329;DHT22;658;48.820;9.354;2023-08-31T13:55:05;22.10;59.10
1329;DHT22;658;48.820;9.354;2023-08-31T13:59:11;22.10;59.00
1329;DHT22;658;48.820;9.354;2023-08-31T14:03:12;22.10;59.60
1329;DHT22;658;48.820;9.354;2023-08-31T14:07:12;22.10;58.90
1329;DHT22;658;48.820;9.354;2023-08-31T14:11:14;22.10;58.80
1329;DHT22;658;48.820;9.354;2023-08-31T14:15:14;22.10;59.00
1329;DHT22;658;48.820;9.354;2023-08-31T14:19:15;22.10;58.80
1329;DHT22;658;48.820;9.354;2023-08-31T14:23:15;22.10;58.90
1329;DHT22;658;48.820;9.354;2023-08-31T14:27:16;22.10;58.90
1329;DHT22;658;48.820;9.354;2023-08-31T14:31:17;22.10;58.90
1329;DHT22;658;48.820;9.354;2023-08-31T14:35:18;22.10;58.90
1329;DHT22;658;48.820;9.354;2023-08-31T14:39:21;22.10;59.00
1329;DHT22;658;48.820;9.354;2023-08-31T14:43:21;22.10;58.90
1329;DHT22;658;48.820;9.354;2023-08-31T14:47:22;22.10;58.90
1329;DHT22;658;48.820;9.354;2023-08-31T14:51:22;22.10;58.90
1329;DHT22;658;48.820;9.354;2023-08-31T14:55:24;22.10;58.90
1329;DHT22;658;48.820;9.354;2023-08-31T14:59:25;22.10;58.90
1329;DHT22;658;48.820;9.354;2023-08-31T15:03:26;22.10;59.00
1329;DHT22;658;48.820;9.354;2023-08-31T15:07:29;22.10;58.90
1329;DHT22;658;48.820;9.354;2023-08-31T15:11:30;22.10;58.90
1329;DHT22;658;48.820;9.354;2023-08-31T15:15:30;22.10;58.90
1329;DHT22;658;48.820;9.354;2023-08-31T15:19:31;22.10;58.80
1329;DHT22;658;48.820;9.354;2023-08-31T15:23:34;22.10;58.90
1329;DHT22;658;48.820;9.354;2023-08-31T15:27:35;22.10;58.90
1329;DHT22;658;48.820;9.354;2023-08-31T15:31:36;22.10;58.90
1329;DHT22;658;48.820;9.354;2023-08-31T15:35:39;22.10;59.00
1329;DHT22;658;48.820;9.354;2023-08-31T15:39:39;22.10;59.00
1329;DHT22;658;48.820;9.354;2023-08-31T15:43:40;22.10;59.00
1329;DHT22;658;48.820;9.354;2023-08-31T15:47:42;22.10;59.00
1329;DHT22;658;48.820;9.354;2023-08-31T15:51:44;22.10;59.00
1329;DHT22;658;48.820;9.354;2023-08-31T15:55:48;22.20;59.10
1329;DHT22;658;48.820;9.354;2023-08-31T15:59:51;22.10;59.00
1329;DHT22;658;48.820;9.354;2023-08-31T16:03:54;22.10;59.00
1329;DHT22;658;48.820;9.354;2023-08-31T16:07:55;22.10;59.00
1329;DHT22;658;48.820;9.354;2023-08-31T16:12:00;22.10;59.00
1329;DHT22;658;48.820;9.354;2023-08-31T16:16:00;22.10;59.00
1329;DHT22;658;48.820;9.354;2023-08-31T16:20:01;22.10;59.10
1329;DHT22;658;48.820;9.354;2023-08-31T16:24:02;22.10;59.10
1329;DHT22;658;48.820;9.354;2023-08-31T16:28:05;22.10;59.20
1329;DHT22;658;48.820;9.354;2023-08-31T16:32:06;22.10;59.20
1329;DHT22;658;48.820;9.354;2023-08-31T16:36:06;22.10;59.20
1329;DHT22;658;48.820;9.354;2023-08-31T16:40:09;22.10;59.20
1329;DHT22;658;48.820;9.354;2023-08-31T16:44:10;22.10;59.30
1329;DHT22;658;48.820;9.354;2023-08-31T16:48:11;22.10;59.20
1329;DHT22;658;48.820;9.354;2023-08-31T16:52:12;22.10;59.30
1329;DHT22;658;48.820;9.354;2023-08-31T16:56:13;22.10;59.30
1329;DHT22;658;48.820;9.354;2023-08-31T17:00:16;22.10;59.30
1329;DHT22;658;48.820;9.354;2023-08-31T17:04:16;22.10;59.30
1329;DHT22;658;48.820;9.354;2023-08-31T17:08:17;22.10;59.30
1329;DHT22;658;48.820;9.354;2023-08-31T17:12:17;22.10;59.40
1329;DHT22;658;48.820;9.354;2023-08-31T17:16:18;22.10;59.40
1329;DHT22;658;48.820;9.354;2023-08-31T17:20:19;22.10;59.40
1329;DHT22;658;48.820;9.354;2023-08-31T17:24:19;22.10;59.50
1329;DHT22;658;48.820;9.354;2023-08-31T17:28:20;22.10;59.40
1329;DHT22;658;48.820;9.354;2023-08-31T17:32:20;22.10;59.40
1329;DHT22;658;48.820;9.354;2023-08-31T17:36:21;22.10;59.50
1329;DHT22;658;48.820;9.354;2023-08-31T17:40:23;22.10;59.60
1329;DHT22;658;48.820;9.354;2023-08-31T17:44:23;22.10;59.60
1329;DHT22;658;48.820;9.354;2023-08-31T17:48:26;22.10;59.60
1329;DHT22;658;48.820;9.354;2023-08-31T17:52:27;22.10;59.70
1329;DHT22;658;48.820;9.354;2023-08-31T17:56:27;22.10;59.70
1329;DHT22;658;48.820;9.354;2023-08-31T18:00:28;22.10;59.80
1329;DHT22;658;48.820;9.354;2023-08-31T18:04:28;22.10;59.80
1329;DHT22;658;48.820;9.354;2023-08-31T18:08:31;22.10;59.80
1329;DHT22;658;48.820;9.354;2023-08-31T18:12:31;22.10;59.90
1329;DHT22;658;48.820;9.354;2023-08-31T18:16:32;22.10;60.00
1329;DHT22;658;48.820;9.354;2023-08-31T18:20:32;22.10;60.00
1329;DHT22;658;48.820;9.354;2023-08-31T18:24:33;22.10;60.10
1329;DHT22;658;48.820;9.354;2023-08-31T18:28:37;22.10;60.20
1329;DHT22;658;48.820;9.354;2023-08-31T18:32:37;22.10;60.20
1329;DHT22;658;48.820;9.354;2023-08-31T18:36:38;22.10;60.20
1329;DHT22;658;48.820;9.354;2023-08-31T18:40:39;22.10;60.30
1329;DHT22;658;48.820;9.354;2023-08-31T18:44:39;22.10;60.40
1329;DHT22;658;48.820;9.354;2023-08-31T18:48:40;22.10;60.40
1329;DHT22;658;48.820;9.354;2023-08-31T18:52:40;22.10;60.50
1329;DHT22;658;48.820;9.354;2023-08-31T18:56:41;22.10;60.60
1329;DHT22;658;48.820;9.354;2023-08-31T19:00:42;22.10;60.60
1329;DHT22;658;48.820;9.354;2023-08-31T19:04:42;22.10;60.70
1329;DHT22;658;48.820;9.354;2023-08-31T19:08:43;22.10;60.70
1329;DHT22;658;48.820;9.354;2023-08-31T19:12:45;22.10;60.80
1329;DHT22;658;48.820;9.354;2023-08-31T19:16:48;22.10;60.80
1329;DHT22;658;48.820;9.354;2023-08-31T19:20:50;22.10;60.90
1329;DHT22;658;48.820;9.354;2023-08-31T19:24:51;22.10;61.00
1329;DHT22;658;48.820;9.354;2023-08-31T19:28:52;22.10;61.10
1329;DHT22;658;48.820;9.354;2023-08-31T19:32:53;22.10;61.10
1329;DHT22;658;48.820;9.354;2023-08-31T19:36:53;22.10;61.10
1329;DHT22;658;48.820;9.354;2023-08-31T19:40:54;22.10;61.20
1329;DHT22;658;48.820;9.354;2023-08-31T19:44:54;22.10;61.30
1329;DHT22;658;48.820;9.354;2023-08-31T19:48:55;22.00;61.30
1329;DHT22;658;48.820;9.354;2023-08-31T19:52:56;22.10;61.30
1329;DHT22;658;48.820;9.354;2023-08-31T19:56:56;22.00;61.30
1329;DHT22;658;48.820;9.354;2023-08-31T20:00:59;22.00;61.30
1329;DHT22;658;48.820;9.354;2023-08-31T20:05:00;22.10;61.50
1329;DHT22;658;48.820;9.354;2023-08-31T20:09:00;22.10;61.60
1329;DHT22;658;48.820;9.354;2023-08-31T20:13:01;22.00;61.50
1329;DHT22;658;48.820;9.354;2023-08-31T20:17:02;22.10;61.60
1329;DHT22;658;48.820;9.354;2023-08-31T20:21:03;22.10;61.60
1329;DHT22;658;48.820;9.354;2023-08-31T20:25:08;22.10;61.80
1329;DHT22;658;48.820;9.354;2023-08-31T20:29:09;22.10;61.80
1329;DHT22;658;48.820;9.354;2023-08-31T20:33:15;22.10;61.80
1329;DHT22;658;48.820;9.354;2023-08-31T20:37:16;22.00;61.90
1329;DHT22;658;48.820;9.354;2023-08-31T20:41:16;22.00;61.90
1329;DHT22;658;48.820;9.354;2023-08-31T20:45:17;22.00;62.00
1329;DHT22;658;48.820;9.354;2023-08-31T20:49:18;22.00;62.00
1329;DHT22;658;48.820;9.354;2023-08-31T20:53:18;22.10;62.10
1329;DHT22;658;48.820;9.354;2023-08-31T20:57:20;22.10;62.10
1329;DHT22;658;48.820;9.354;2023-08-31T21:01:20;22.00;62.10
1329;DHT22;658;48.820;9.354;2023-08-31T21:05:23;22.00;62.10
1329;DHT22;658;48.820;9.354;2023-08-31T21:09:24;22.00;62.10
1329;DHT22;658;48.820;9.354;2023-08-31T21:13:24;22.00;62.10
1329;DHT22;658;48.820;9.354;2023-08-31T21:17:25;22.00;62.30
1329;DHT22;658;48.820;9.354;2023-08-31T21:21:26;22.00;62.30
1329;DHT22;658;48.820;9.354;2023-08-31T21:25:26;22.00;62.30
1329;DHT22;658;48.820;9.354;2023-08-31T21:29:27;22.00;62.30
1329;DHT22;658;48.820;9.354;2023-08-31T21:33:28;22.10;62.40
1329;DHT22;658;48.820;9.354;2023-08-31T21:37:28;22.00;62.30
1329;DHT22;658;48.820;9.354;2023-08-31T21:41:29;22.00;62.30
1329;DHT22;658;48.820;9.354;2023-08-31T21:45:30;22.00;62.30
1329;DHT22;658;48.820;9.354;2023-08-31T21:49:33;22.10;62.40
1329;DHT22;658;48.820;9.354;2023-08-31T21:53:34;22.00;62.40
1329;DHT22;658;48.820;9.354;2023-08-31T21:57:34;22.00;62.50
1329;DHT22;658;48.820;9.354;2023-08-31T22:01:35;22.00;62.50
1329;DHT22;658;48.820;9.354;2023-08-31T22:05:36;22.00;62.60
1329;DHT22;658;48.820;9.354;2023-08-31T22:09:39;22.00;62.50
1329;DHT22;658;48.820;9.354;2023-08-31T22:13:40;22.00;62.60
1329;DHT22;658;48.820;9.354;2023-08-31T22:17:42;22.00;62.60
1329;DHT22;658;48.820;9.354;2023-08-31T22:21:43;22.00;62.70
1329;DHT22;658;48.820;9.354;2023-08-31T22:25:46;22.00;62.70
1329;DHT22;658;48.820;9.354;2023-08-31T22:29:46;22.00;62.70
1329;DHT22;658;48.820;9.354;2023-08-31T22:33:47;22.00;62.80
1329;DHT22;658;48.820;9.354;2023-08-31T22:37:48;22.00;62.80
1329;DHT22;658;48.820;9.354;2023-08-31T22:41:49;22.00;62.80
1329;DHT22;658;48.820;9.354;2023-08-31T22:45:56;22.00;62.80
1329;DHT22;658;48.820;9.354;2023-08-31T22:49:57;22.00;62.90
1329;DHT22;658;48.820;9.354;2023-08-31T22:53:58;22.00;62.90
1329;DHT22;658;48.820;9.354;2023-08-31T22:57:58;22.00;63.00
1329;DHT22;658;48.820;9.354;2023-08-31T23:01:59;22.00;62.90
1329;DHT22;658;48.820;9.354;2023-08-31T23:06:00;22.00;62.90
1329;DHT22;658;48.820;9.354;2023-08-31T23:10:03;22.00;63.00
1329;DHT22;658;48.820;9.354;2023-08-31T23:14:04;22.00;63.00
1329;DHT22;658;48.820;9.354;2023-08-31T23:18:05;22.00;63.00
1329;DHT22;658;48.820;9.354;2023-08-31T23:22:06;22.00;63.80
1329;DHT22;658;48.820;9.354;2023-08-31T23:26:06;22.00;63.00
1329;DHT22;658;48.820;9.354;2023-08-31T23:30:07;22.00;63.10
1329;DHT22;658;48.820;9.354;2023-08-31T23:34:08;22.00;63.10
1329;DHT22;658;48.820;9.354;2023-08-31T23:38:08;22.00;63.00
1329;DHT22;658;48.820;9.354;2023-08-31T23:42:09;22.00;63.10
1329;DHT22;658;48.820;9.354;2023-08-31T23:46:09;22.00;63.20
1329;DHT22;658;48.820;9.354;2023-08-31T23:50:10;22.00;63.20
1329;DHT22;658;48.820;9.354;2023-08-31T23:54:10;22.00;63.20
1329;DHT22;658;48.820;9.354;2023-08-31T23:58:12;21.90;63.10
